Turley, New Mexico
Current Conditions -  °F | °C
As of 12:53 AM on Friday 24 Oct 2014 (Local Time) from KFMN Reporting Station
Clear Clear  
Wind Chill: 44°   Ceiling: Unl
Heat Index: 48°   Visibility: 10mi
Dew Point: 33°   Wind: 8mph
Humidity: 56%   Direction: 80°E
Pressure: 30.28"   Gusts: NA
Location:  36.6079°N, 107.734°W
Report Text: KFMN 240653Z AUTO 08007KT 10SM CLR 09/01 A3028 RMK AO2 SLP221 T00890006 402330039
Loading
Personal Weather Stations






























Interactive Weather Map
Tropical Storm Tracking
New forecast layout! Learn more

10-Day Weather Forecast

Advertisements
Track Severe Weather on mobile